Time;durP1;ratioP1;P1;durP2;ratioP2;P2;SDS_P1;SDS_P2;PMS_P1;PMS_P2;Temp;Humidity;BMP_temperature;BMP_pressure;BME280_temperature;BME280_humidity;BME280_pressure;Samples;Min_cycle;Max_cycle;Signal;HPM_P1;HPM_P2
2023/05/04 00:01:38;;;;;;;5.80;4.67;;;;;;;;;;5115642;28;20221;-75
2023/05/04 00:04:06;;;;;;;6.77;4.47;;;;;;;;;;5115324;28;20288;-76
2023/05/04 00:06:33;;;;;;;5.70;4.67;;;;;;;;;;5114748;28;20320;-76
2023/05/04 00:09:00;;;;;;;5.07;4.40;;;;;;;;;;5115340;28;20284;-76
2023/05/04 00:11:27;;;;;;;5.20;4.37;;;;;;;;;;5114897;28;20637;-76
2023/05/04 00:13:54;;;;;;;7.97;4.47;;;;;;;;;;5115314;28;20246;-77
2023/05/04 00:16:21;;;;;;;6.53;4.93;;;;;;;;;;5115100;28;20292;-77
2023/05/04 00:18:50;;;;;;;6.00;4.30;;;;;;;;;;5114908;28;20997;-76
2023/05/04 00:21:17;;;;;;;5.73;4.30;;;;;;;;;;5115274;28;20662;-76
2023/05/04 00:23:44;;;;;;;6.53;4.23;;;;;;;;;;5115184;28;20193;-77
2023/05/04 00:26:12;;;;;;;6.03;4.13;;;;;;;;;;5114273;28;20313;-77
2023/05/04 00:28:39;;;;;;;5.87;4.53;;;;;;;;;;5115122;28;20725;-76
2023/05/04 00:31:06;;;;;;;8.03;4.87;;;;;;;;;;5114925;28;20609;-75
2023/05/04 00:33:33;;;;;;;7.17;5.27;;;;;;;;;;5114657;28;20686;-76
2023/05/04 00:36:03;;;;;;;6.13;4.37;;;;;;;;;;5115158;28;20304;-76
2023/05/04 00:38:30;;;;;;;4.90;4.40;;;;;;;;;;5114713;28;20285;-75
2023/05/04 00:40:57;;;;;;;6.87;4.43;;;;;;;;;;5114298;28;20225;-76
2023/05/04 00:43:25;;;;;;;13.93;4.77;;;;;;;;;;5114393;28;20713;-76
2023/05/04 00:45:52;;;;;;;4.97;4.03;;;;;;;;;;5114387;28;20225;-75
2023/05/04 00:48:20;;;;;;;6.50;4.40;;;;;;;;;;5114814;28;20197;-77
2023/05/04 00:50:47;;;;;;;5.93;4.57;;;;;;;;;;5114033;28;20549;-75
2023/05/04 00:53:16;;;;;;;7.93;4.67;;;;;;;;;;5114486;28;20386;-76
2023/05/04 00:55:43;;;;;;;5.73;4.60;;;;;;;;;;5113689;28;20662;-76
2023/05/04 00:58:11;;;;;;;5.70;4.17;;;;;;;;;;5113938;28;20267;-76
2023/05/04 01:00:38;;;;;;;8.57;4.30;;;;;;;;;;5113788;28;20190;-77
2023/05/04 01:03:05;;;;;;;6.03;4.23;;;;;;;;;;5114389;28;20693;-77
2023/05/04 01:05:38;;;;;;;5.70;4.47;;;;;;;;;;5093711;28;20244;-77
2023/05/04 01:08:08;;;;;;;5.90;4.03;;;;;;;;;;5107094;28;20317;-76
2023/05/04 01:10:40;;;;;;;6.47;4.20;;;;;;;;;;5113832;28;20194;-76
2023/05/04 01:13:09;;;;;;;4.50;4.10;;;;;;;;;;5114119;28;20293;-76
2023/05/04 01:15:36;;;;;;;5.33;4.30;;;;;;;;;;5113876;28;20294;-76
2023/05/04 01:18:04;;;;;;;5.90;4.40;;;;;;;;;;5113785;28;20213;-76
2023/05/04 01:20:31;;;;;;;5.70;4.20;;;;;;;;;;5114081;28;20233;-77
2023/05/04 01:23:00;;;;;;;7.90;4.23;;;;;;;;;;5113712;28;20202;-77
2023/05/04 01:25:29;;;;;;;6.67;4.43;;;;;;;;;;5113504;28;20288;-76
2023/05/04 01:27:58;;;;;;;7.13;4.37;;;;;;;;;;5113911;28;20197;-76
2023/05/04 01:30:28;;;;;;;5.50;4.47;;;;;;;;;;5113646;28;20218;-76
2023/05/04 01:32:56;;;;;;;6.20;4.03;;;;;;;;;;5113829;28;20277;-77
2023/05/04 01:35:23;;;;;;;5.73;4.50;;;;;;;;;;5113669;28;20289;-77
2023/05/04 01:37:51;;;;;;;6.40;4.63;;;;;;;;;;5114081;28;20284;-76
2023/05/04 01:40:19;;;;;;;5.27;4.03;;;;;;;;;;5113369;28;20190;-76
2023/05/04 01:42:46;;;;;;;5.63;3.93;;;;;;;;;;5113013;28;20352;-76
2023/05/04 01:45:13;;;;;;;6.03;4.10;;;;;;;;;;5113629;28;20288;-76
2023/05/04 01:47:41;;;;;;;4.63;4.13;;;;;;;;;;5113588;28;20312;-76
2023/05/04 01:50:08;;;;;;;5.70;4.30;;;;;;;;;;5113587;28;20213;-76
2023/05/04 01:52:36;;;;;;;4.87;4.03;;;;;;;;;;5113213;28;20280;-76
2023/05/04 01:55:03;;;;;;;5.27;4.30;;;;;;;;;;5112843;28;20609;-77
2023/05/04 01:57:31;;;;;;;5.97;4.13;;;;;;;;;;5113310;28;20289;-75
2023/05/04 01:59:58;;;;;;;4.40;4.00;;;;;;;;;;5113116;28;20312;-77
2023/05/04 02:02:26;;;;;;;5.43;4.00;;;;;;;;;;5113029;28;20641;-75
2023/05/04 02:04:53;;;;;;;5.23;4.40;;;;;;;;;;5113181;28;20227;-76
2023/05/04 02:07:20;;;;;;;6.10;4.70;;;;;;;;;;5112384;28;20260;-76
2023/05/04 02:09:47;;;;;;;5.43;4.13;;;;;;;;;;5112625;28;20669;-76
2023/05/04 02:12:14;;;;;;;6.87;4.20;;;;;;;;;;5112722;28;20208;-76
2023/05/04 02:14:43;;;;;;;5.57;4.13;;;;;;;;;;5112763;28;20288;-76
2023/05/04 02:17:10;;;;;;;4.97;3.70;;;;;;;;;;5112960;28;20240;-76
2023/05/04 02:19:37;;;;;;;7.40;4.30;;;;;;;;;;5112766;28;20288;-76
2023/05/04 02:22:04;;;;;;;4.60;4.17;;;;;;;;;;5112587;28;20285;-76
2023/05/04 02:24:33;;;;;;;5.33;3.97;;;;;;;;;;5112679;28;20225;-76
2023/05/04 02:27:00;;;;;;;5.70;4.13;;;;;;;;;;5112314;28;20228;-75
2023/05/04 02:29:28;;;;;;;6.77;4.33;;;;;;;;;;5112717;28;20273;-76
2023/05/04 02:31:56;;;;;;;6.77;4.50;;;;;;;;;;5112212;28;20702;-76
2023/05/04 02:34:23;;;;;;;5.73;4.30;;;;;;;;;;5112775;28;20284;-76
2023/05/04 02:36:50;;;;;;;5.77;3.93;;;;;;;;;;5112367;28;20200;-75
2023/05/04 02:39:18;;;;;;;4.40;3.87;;;;;;;;;;5112400;28;20284;-77
2023/05/04 02:41:45;;;;;;;4.93;4.20;;;;;;;;;;5109311;28;20200;-76
2023/05/04 02:44:12;;;;;;;5.03;4.27;;;;;;;;;;5100552;28;20246;-75
2023/05/04 02:46:40;;;;;;;4.80;3.80;;;;;;;;;;5111919;28;20320;-76
2023/05/04 02:49:08;;;;;;;5.67;3.70;;;;;;;;;;5112566;28;20239;-75
2023/05/04 02:51:35;;;;;;;4.73;4.23;;;;;;;;;;5111553;28;20185;-75
2023/05/04 02:54:03;;;;;;;5.73;4.10;;;;;;;;;;5111714;28;20292;-75
2023/05/04 02:56:30;;;;;;;6.77;4.00;;;;;;;;;;5111938;28;20288;-75
2023/05/04 02:58:57;;;;;;;5.17;3.90;;;;;;;;;;5112596;28;20225;-76
2023/05/04 03:01:24;;;;;;;5.43;3.90;;;;;;;;;;5111705;28;20235;-77
2023/05/04 03:03:51;;;;;;;6.20;3.97;;;;;;;;;;5112042;28;20280;-76
2023/05/04 03:06:20;;;;;;;4.43;3.60;;;;;;;;;;5111467;28;20419;-76
2023/05/04 03:08:47;;;;;;;5.33;3.60;;;;;;;;;;5111965;28;20287;-76
2023/05/04 03:11:15;;;;;;;4.37;3.73;;;;;;;;;;5111950;28;20289;-76
2023/05/04 03:13:42;;;;;;;7.23;3.73;;;;;;;;;;5111781;28;20198;-76
2023/05/04 03:16:09;;;;;;;5.47;3.67;;;;;;;;;;5111912;28;20301;-76
2023/05/04 03:18:36;;;;;;;5.60;3.70;;;;;;;;;;5111814;28;20190;-76
2023/05/04 03:21:04;;;;;;;4.70;4.03;;;;;;;;;;5111576;28;20227;-76
2023/05/04 03:23:32;;;;;;;4.60;4.10;;;;;;;;;;5111834;28;20194;-75
2023/05/04 03:26:00;;;;;;;4.67;3.70;;;;;;;;;;5111678;28;20190;-76
2023/05/04 03:28:27;;;;;;;4.30;3.90;;;;;;;;;;5111690;28;20194;-76
2023/05/04 03:30:54;;;;;;;4.80;3.97;;;;;;;;;;5111441;28;20193;-76
2023/05/04 03:33:22;;;;;;;4.50;4.07;;;;;;;;;;5111562;28;20671;-76
2023/05/04 03:35:49;;;;;;;6.37;3.60;;;;;;;;;;5111580;28;20224;-76
2023/05/04 03:38:16;;;;;;;4.47;3.70;;;;;;;;;;5111707;28;20229;-76
2023/05/04 03:40:45;;;;;;;4.93;4.43;;;;;;;;;;5111474;28;20190;-76
2023/05/04 03:43:12;;;;;;;6.00;3.90;;;;;;;;;;5111483;28;20268;-75
2023/05/04 03:45:39;;;;;;;5.63;4.07;;;;;;;;;;5111189;28;20737;-76
2023/05/04 03:48:07;;;;;;;4.83;3.80;;;;;;;;;;5111712;28;20233;-75
2023/05/04 03:50:34;;;;;;;5.00;4.10;;;;;;;;;;5111124;28;20281;-76
2023/05/04 03:53:01;;;;;;;4.70;4.23;;;;;;;;;;5111500;28;20224;-78
2023/05/04 03:55:28;;;;;;;5.57;3.77;;;;;;;;;;5111433;28;20197;-76
2023/05/04 03:57:57;;;;;;;5.73;4.20;;;;;;;;;;5111911;28;20289;-75
2023/05/04 04:00:24;;;;;;;5.57;4.60;;;;;;;;;;5111438;28;20257;-75
2023/05/04 04:02:51;;;;;;;4.50;4.10;;;;;;;;;;5111356;28;20264;-75
2023/05/04 04:05:18;;;;;;;4.90;4.00;;;;;;;;;;5111027;28;20296;-76
2023/05/04 04:07:46;;;;;;;5.83;4.20;;;;;;;;;;5111346;28;20320;-76
2023/05/04 04:10:13;;;;;;;4.50;4.10;;;;;;;;;;5111393;28;20300;-76
2023/05/04 04:12:40;;;;;;;4.90;4.00;;;;;;;;;;5111628;28;20225;-76
2023/05/04 04:15:09;;;;;;;4.83;4.30;;;;;;;;;;5110813;28;20280;-76
2023/05/04 04:17:36;;;;;;;5.80;4.20;;;;;;;;;;5111026;28;20804;-76
2023/05/04 04:20:03;;;;;;;5.47;4.07;;;;;;;;;;5111477;28;20250;-76
2023/05/04 04:22:31;;;;;;;5.57;4.00;;;;;;;;;;5111211;28;20273;-76
2023/05/04 04:24:58;;;;;;;4.07;3.67;;;;;;;;;;5111215;28;20285;-76
2023/05/04 04:27:25;;;;;;;6.33;3.80;;;;;;;;;;5110899;28;20225;-76
2023/05/04 04:29:52;;;;;;;4.43;4.00;;;;;;;;;;5111160;28;20633;-75
2023/05/04 04:32:21;;;;;;;4.57;3.67;;;;;;;;;;5110881;28;20633;-76
2023/05/04 04:34:48;;;;;;;4.67;4.17;;;;;;;;;;5115001;28;20197;-76
2023/05/04 04:37:15;;;;;;;4.57;3.87;;;;;;;;;;5114730;28;20292;-76
2023/05/04 04:39:43;;;;;;;4.20;3.80;;;;;;;;;;5114874;28;20228;-76
2023/05/04 04:42:10;;;;;;;6.10;4.17;;;;;;;;;;5114647;28;20308;-76
2023/05/04 04:44:38;;;;;;;5.97;4.10;;;;;;;;;;5114738;28;20688;-76
2023/05/04 04:47:05;;;;;;;4.20;3.77;;;;;;;;;;5114076;28;20766;-76
2023/05/04 04:49:33;;;;;;;5.23;3.70;;;;;;;;;;5114677;28;20193;-76
2023/05/04 04:52:01;;;;;;;5.83;4.23;;;;;;;;;;5114067;28;20284;-76
2023/05/04 04:54:28;;;;;;;5.10;4.17;;;;;;;;;;5114733;28;20251;-76
2023/05/04 04:56:56;;;;;;;4.37;3.97;;;;;;;;;;5114465;27;20213;-75
2023/05/04 04:59:23;;;;;;;6.10;4.10;;;;;;;;;;5114537;28;20277;-76
2023/05/04 05:01:51;;;;;;;4.40;4.00;;;;;;;;;;5111376;28;20190;-76
2023/05/04 05:04:19;;;;;;;7.30;4.37;;;;;;;;;;5113934;28;20583;-75
2023/05/04 05:06:47;;;;;;;6.77;3.83;;;;;;;;;;5110554;28;20716;-76
2023/05/04 05:09:14;;;;;;;4.20;3.80;;;;;;;;;;5113090;28;20280;-76
2023/05/04 05:11:41;;;;;;;5.77;3.97;;;;;;;;;;5113725;28;20286;-75
2023/05/04 05:14:09;;;;;;;5.07;4.27;;;;;;;;;;5117587;27;20198;-76
2023/05/04 05:16:36;;;;;;;4.33;3.93;;;;;;;;;;5108412;28;20198;-76
2023/05/04 05:19:03;;;;;;;4.70;3.70;;;;;;;;;;5103743;28;20200;-76
2023/05/04 05:21:30;;;;;;;4.77;4.03;;;;;;;;;;5113989;28;20251;-76
2023/05/04 05:24:00;;;;;;;4.10;3.70;;;;;;;;;;5113546;28;20751;-76
2023/05/04 05:26:27;;;;;;;6.60;4.17;;;;;;;;;;5114004;28;20561;-76
2023/05/04 05:28:54;;;;;;;5.50;4.10;;;;;;;;;;5113687;28;20225;-77
2023/05/04 05:31:22;;;;;;;5.27;4.27;;;;;;;;;;5112192;28;20202;-76
2023/05/04 05:33:49;;;;;;;6.07;4.20;;;;;;;;;;5110311;28;20284;-76
2023/05/04 05:36:16;;;;;;;4.67;4.00;;;;;;;;;;5094731;27;20240;-76
2023/05/04 05:38:43;;;;;;;4.40;4.00;;;;;;;;;;5107433;27;20632;-77
2023/05/04 05:41:14;;;;;;;4.67;4.20;;;;;;;;;;5105334;28;20194;-76
2023/05/04 05:43:41;;;;;;;4.90;4.17;;;;;;;;;;5103096;28;20806;-76
2023/05/04 05:46:08;;;;;;;5.63;4.07;;;;;;;;;;5092182;28;20248;-77
2023/05/04 05:48:35;;;;;;;4.77;3.70;;;;;;;;;;5093046;28;20265;-76
2023/05/04 05:51:02;;;;;;;4.53;3.70;;;;;;;;;;5095990;28;20221;-76
2023/05/04 05:53:30;;;;;;;5.17;3.87;;;;;;;;;;5098206;28;20384;-77
2023/05/04 05:55:57;;;;;;;5.80;3.97;;;;;;;;;;5108734;28;20217;-77
2023/05/04 05:58:25;;;;;;;4.73;4.03;;;;;;;;;;5113384;28;20701;-76
2023/05/04 06:00:53;;;;;;;4.60;3.80;;;;;;;;;;5112044;28;20292;-75
2023/05/04 06:03:20;;;;;;;5.50;4.20;;;;;;;;;;5099527;28;20293;-76
2023/05/04 06:05:47;;;;;;;11.07;4.00;;;;;;;;;;5093101;28;20198;-77
2023/05/04 06:08:14;;;;;;;8.20;4.27;;;;;;;;;;5092322;28;20230;-75
2023/05/04 06:10:41;;;;;;;4.73;3.90;;;;;;;;;;5092620;28;20191;-75
2023/05/04 06:13:09;;;;;;;5.27;4.20;;;;;;;;;;5093925;28;20202;-76
2023/05/04 06:15:37;;;;;;;4.30;3.90;;;;;;;;;;5112783;28;20284;-76
2023/05/04 06:18:04;;;;;;;6.57;4.30;;;;;;;;;;5112730;28;20288;-75
2023/05/04 06:20:32;;;;;;;5.10;4.53;;;;;;;;;;5112261;28;20713;-76
2023/05/04 06:22:59;;;;;;;5.00;4.50;;;;;;;;;;5113126;28;20627;-76
2023/05/04 06:25:26;;;;;;;5.70;4.20;;;;;;;;;;5113183;28;20218;-75
2023/05/04 06:27:53;;;;;;;6.23;3.97;;;;;;;;;;5112586;28;20282;-76
2023/05/04 06:30:23;;;;;;;5.03;4.57;;;;;;;;;;5112106;28;20222;-76
2023/05/04 06:32:51;;;;;;;5.40;4.37;;;;;;;;;;5112502;28;20197;-75
2023/05/04 06:35:18;;;;;;;5.33;4.83;;;;;;;;;;5112812;28;20281;-76
2023/05/04 06:37:46;;;;;;;6.73;5.03;;;;;;;;;;5113270;28;20290;-76
2023/05/04 06:40:14;;;;;;;6.70;5.03;;;;;;;;;;5112457;28;20289;-76
2023/05/04 06:42:41;;;;;;;5.43;4.90;;;;;;;;;;5112126;28;20232;-75
2023/05/04 06:45:08;;;;;;;7.33;5.10;;;;;;;;;;5112668;28;20228;-75
2023/05/04 06:47:36;;;;;;;7.10;5.60;;;;;;;;;;5112346;28;20257;-75
2023/05/04 06:50:09;;;;;;;6.33;5.30;;;;;;;;;;5112479;28;20193;-76
2023/05/04 06:52:37;;;;;;;7.73;5.47;;;;;;;;;;5112571;28;20193;-76
2023/05/04 06:55:04;;;;;;;5.73;4.90;;;;;;;;;;5111948;28;20205;-76
2023/05/04 06:57:32;;;;;;;7.50;5.57;;;;;;;;;;5111718;28;20666;-76
2023/05/04 06:59:59;;;;;;;7.00;5.67;;;;;;;;;;5112196;28;20197;-77
2023/05/04 07:02:26;;;;;;;7.97;6.17;;;;;;;;;;5112374;28;20293;-76
2023/05/04 07:04:55;;;;;;;9.77;6.37;;;;;;;;;;5112316;28;20201;-77
2023/05/04 07:07:24;;;;;;;8.47;6.27;;;;;;;;;;5112251;28;20589;-76
2023/05/04 07:09:51;;;;;;;9.40;6.63;;;;;;;;;;5112024;28;20214;-76
2023/05/04 07:12:18;;;;;;;9.20;6.60;;;;;;;;;;5111581;28;20277;-76
2023/05/04 07:14:46;;;;;;;8.67;6.40;;;;;;;;;;5111924;28;20629;-77
2023/05/04 07:17:13;;;;;;;7.43;6.70;;;;;;;;;;5112553;28;20281;-76
2023/05/04 07:19:40;;;;;;;6.73;5.83;;;;;;;;;;5111962;28;20198;-77
2023/05/04 07:22:08;;;;;;;8.30;6.70;;;;;;;;;;5112043;28;20601;-76
2023/05/04 07:24:36;;;;;;;9.50;6.43;;;;;;;;;;5111746;28;20194;-76
2023/05/04 07:27:03;;;;;;;10.57;6.77;;;;;;;;;;5111847;28;20633;-76
2023/05/04 07:29:31;;;;;;;8.67;6.63;;;;;;;;;;5111474;28;20728;-77
2023/05/04 07:31:58;;;;;;;8.23;6.40;;;;;;;;;;5111863;28;20246;-77
2023/05/04 07:34:25;;;;;;;8.27;7.03;;;;;;;;;;5112335;28;20288;-76
2023/05/04 07:36:52;;;;;;;8.20;7.13;;;;;;;;;;5111683;28;20669;-76
2023/05/04 07:39:19;;;;;;;8.70;7.43;;;;;;;;;;5111744;28;20202;-75
2023/05/04 07:41:50;;;;;;;9.00;7.17;;;;;;;;;;5111372;28;20288;-76
2023/05/04 07:44:17;;;;;;;8.90;7.17;;;;;;;;;;5111621;28;20325;-76
2023/05/04 07:46:44;;;;;;;7.73;6.90;;;;;;;;;;5111884;28;20221;-77
2023/05/04 07:49:11;;;;;;;9.10;7.30;;;;;;;;;;5112138;28;20354;-77
2023/05/04 07:51:39;;;;;;;8.67;7.03;;;;;;;;;;5111799;28;20300;-76
2023/05/04 07:54:06;;;;;;;8.50;7.13;;;;;;;;;;5111668;28;20189;-77
2023/05/04 07:56:33;;;;;;;8.00;6.80;;;;;;;;;;5111266;28;20246;-76
2023/05/04 07:59:02;;;;;;;10.70;7.40;;;;;;;;;;5111769;28;20285;-77
2023/05/04 08:01:29;;;;;;;9.43;7.23;;;;;;;;;;5111389;28;20668;-76
2023/05/04 08:03:56;;;;;;;9.53;7.87;;;;;;;;;;5111348;28;20202;-77
2023/05/04 08:06:23;;;;;;;9.33;7.70;;;;;;;;;;5111590;28;20229;-76
2023/05/04 08:08:50;;;;;;;8.30;7.50;;;;;;;;;;5114366;28;20320;-76
2023/05/04 08:11:17;;;;;;;9.57;7.17;;;;;;;;;;5115004;28;20194;-76
2023/05/04 08:13:45;;;;;;;9.63;7.77;;;;;;;;;;5115263;28;20233;-76
2023/05/04 08:16:14;;;;;;;8.80;7.80;;;;;;;;;;5115249;28;20204;-77
2023/05/04 08:18:42;;;;;;;8.43;7.33;;;;;;;;;;5115359;28;20194;-75
2023/05/04 08:21:09;;;;;;;9.17;7.50;;;;;;;;;;5115477;28;20768;-77
2023/05/04 08:23:36;;;;;;;9.10;7.60;;;;;;;;;;5115493;28;20289;-77
2023/05/04 08:26:04;;;;;;;8.87;7.97;;;;;;;;;;5114710;28;20289;-77
2023/05/04 08:28:31;;;;;;;9.20;8.17;;;;;;;;;;5115525;28;20321;-77
2023/05/04 08:30:59;;;;;;;8.73;7.30;;;;;;;;;;5114932;28;20208;-76
2023/05/04 08:33:27;;;;;;;8.20;7.40;;;;;;;;;;5115242;28;20711;-77
2023/05/04 08:35:54;;;;;;;8.03;7.23;;;;;;;;;;5114978;28;20225;-75
2023/05/04 08:38:22;;;;;;;8.50;7.43;;;;;;;;;;5115172;28;20225;-76
2023/05/04 08:40:49;;;;;;;9.73;6.90;;;;;;;;;;5114642;28;20300;-77
2023/05/04 08:43:16;;;;;;;9.63;7.60;;;;;;;;;;5114670;28;20317;-77
2023/05/04 08:45:43;;;;;;;8.23;7.30;;;;;;;;;;5115383;28;20194;-77
2023/05/04 08:48:10;;;;;;;8.07;6.73;;;;;;;;;;5114641;28;20312;-77
2023/05/04 08:50:39;;;;;;;8.83;6.90;;;;;;;;;;5114675;28;20193;-77
2023/05/04 08:53:07;;;;;;;8.87;7.27;;;;;;;;;;5114587;28;20636;-77
2023/05/04 08:55:36;;;;;;;7.53;6.43;;;;;;;;;;5114732;28;20285;-76
2023/05/04 08:58:06;;;;;;;8.02;6.63;;;;;;;;;;5114374;28;20225;-76
2023/05/04 09:00:34;;;;;;;6.85;6.15;;;;;;;;;;5114368;27;20662;-77
2023/05/04 09:03:03;;;;;;;8.25;6.03;;;;;;;;;;5114496;28;20240;-78
2023/05/04 09:05:30;;;;;;;8.98;6.20;;;;;;;;;;5114542;28;20200;-78
2023/05/04 09:07:59;;;;;;;7.25;5.82;;;;;;;;;;5114402;28;20221;-77
2023/05/04 09:10:26;;;;;;;5.60;5.00;;;;;;;;;;5114516;28;20270;-77
2023/05/04 09:12:54;;;;;;;5.72;5.22;;;;;;;;;;5114409;28;20285;-79
2023/05/04 09:15:22;;;;;;;6.18;5.45;;;;;;;;;;5114407;28;20233;-77
2023/05/04 09:17:56;;;;;;;6.25;5.13;;;;;;;;;;5113913;28;20719;-78
2023/05/04 09:20:24;;;;;;;5.75;5.00;;;;;;;;;;5114121;28;20284;-78
2023/05/04 09:23:01;;;;;;;7.35;5.45;;;;;;;;;;5113854;28;20205;-78
2023/05/04 09:25:29;;;;;;;6.50;4.80;;;;;;;;;;5114601;28;20197;-78
2023/05/04 09:27:56;;;;;;;6.45;5.28;;;;;;;;;;5113845;28;20197;-77
2023/05/04 09:30:24;;;;;;;5.50;5.00;;;;;;;;;;5114173;28;20293;-78
2023/05/04 09:32:51;;;;;;;6.93;5.57;;;;;;;;;;5113884;28;20285;-79
2023/05/04 09:35:27;;;;;;;6.15;5.15;;;;;;;;;;5113680;28;20237;-78
2023/05/04 09:37:55;;;;;;;6.18;4.88;;;;;;;;;;5114048;28;20189;-78
2023/05/04 09:40:32;;;;;;;6.05;4.95;;;;;;;;;;5113968;28;20194;-78
2023/05/04 09:42:59;;;;;;;5.75;3.95;;;;;;;;;;5113857;28;20259;-78
2023/05/04 09:45:28;;;;;;;4.47;3.88;;;;;;;;;;5113671;28;20198;-78
2023/05/04 09:47:56;;;;;;;4.30;3.90;;;;;;;;;;5113898;28;20197;-78
2023/05/04 09:50:24;;;;;;;5.40;3.47;;;;;;;;;;5113506;28;20261;-79
2023/05/04 09:52:52;;;;;;;3.65;2.90;;;;;;;;;;5113639;28;20201;-78
2023/05/04 09:55:19;;;;;;;4.00;2.90;;;;;;;;;;5113802;28;20280;-79
2023/05/04 09:57:49;;;;;;;5.63;3.08;;;;;;;;;;5113694;28;20280;-79
2023/05/04 10:00:17;;;;;;;4.60;3.55;;;;;;;;;;5113647;28;20204;-78
2023/05/04 10:02:45;;;;;;;5.82;2.92;;;;;;;;;;5113496;28;20214;-78
2023/05/04 10:05:14;;;;;;;4.57;3.00;;;;;;;;;;5112961;28;20201;-79
2023/05/04 10:07:42;;;;;;;3.70;3.00;;;;;;;;;;5112758;28;20869;-78
2023/05/04 10:10:10;;;;;;;4.32;2.88;;;;;;;;;;5113480;28;20225;-79
2023/05/04 10:12:38;;;;;;;5.55;3.10;;;;;;;;;;5113294;28;20288;-80
2023/05/04 10:15:08;;;;;;;5.55;2.90;;;;;;;;;;5113191;28;20233;-79
2023/05/04 10:17:39;;;;;;;4.57;2.80;;;;;;;;;;5112707;28;20189;-79
2023/05/04 10:20:12;;;;;;;3.78;2.45;;;;;;;;;;5112669;28;20194;-79
2023/05/04 10:22:46;;;;;;;3.10;2.20;;;;;;;;;;5112999;28;20608;-78
2023/05/04 10:25:43;;;;;;;3.13;2.28;;;;;;;;;;5113597;28;20308;-79
2023/05/04 10:28:15;;;;;;;5.03;2.55;;;;;;;;;;5070239;28;20199;-79
2023/05/04 10:30:44;;;;;;;4.18;2.65;;;;;;;;;;5069294;28;20191;-79
2023/05/04 10:33:12;;;;;;;3.10;1.90;;;;;;;;;;5069788;28;20672;-78
2023/05/04 10:35:50;;;;;;;2.85;1.80;;;;;;;;;;5069839;28;20573;-78
2023/05/04 10:38:17;;;;;;;2.92;1.60;;;;;;;;;;5069743;28;20195;-79
2023/05/04 10:40:47;;;;;;;3.05;2.03;;;;;;;;;;5069449;28;20286;-79
2023/05/04 10:43:22;;;;;;;3.60;1.95;;;;;;;;;;5069875;28;20676;-79
2023/05/04 10:45:51;;;;;;;3.17;1.90;;;;;;;;;;5069683;28;20595;-79
2023/05/04 10:48:18;;;;;;;4.35;2.15;;;;;;;;;;5069738;28;20203;-79
2023/05/04 10:50:46;;;;;;;5.30;1.83;;;;;;;;;;5068900;28;20223;-79
2023/05/04 10:53:14;;;;;;;3.40;1.88;;;;;;;;;;5070028;28;20203;-78
2023/05/04 10:55:41;;;;;;;4.15;1.77;;;;;;;;;;5069674;28;20199;-80
2023/05/04 10:58:10;;;;;;;2.78;1.30;;;;;;;;;;5069372;28;20191;-79
2023/05/04 11:00:37;;;;;;;3.10;1.45;;;;;;;;;;5069384;28;20269;-80
2023/05/04 11:03:07;;;;;;;3.30;1.20;;;;;;;;;;5104329;28;20193;-79
2023/05/04 11:05:41;;;;;;;2.50;1.60;;;;;;;;;;5111879;28;20205;-78
2023/05/04 11:08:19;;;;;;;3.53;1.40;;;;;;;;;;5112379;28;20197;-79
2023/05/04 11:10:47;;;;;;;2.13;1.27;;;;;;;;;;5112000;28;20319;-79
2023/05/04 11:13:14;;;;;;;2.47;1.63;;;;;;;;;;5112069;28;20193;-79
2023/05/04 11:15:45;;;;;;;2.47;1.63;;;;;;;;;;5112214;28;20194;-78
2023/05/04 11:18:14;;;;;;;2.78;1.40;;;;;;;;;;5111862;28;20247;-79
2023/05/04 11:20:42;;;;;;;2.58;1.10;;;;;;;;;;5111940;28;20296;-79
2023/05/04 11:23:10;;;;;;;1.73;0.82;;;;;;;;;;5112058;28;20197;-79
2023/05/04 11:25:37;;;;;;;1.65;0.88;;;;;;;;;;5112174;28;20292;-79
2023/05/04 11:28:05;;;;;;;4.10;0.80;;;;;;;;;;5111941;28;20193;-81
2023/05/04 11:30:33;;;;;;;1.05;0.68;;;;;;;;;;5112068;28;20228;-80
2023/05/04 11:33:00;;;;;;;2.25;0.70;;;;;;;;;;5111446;28;20194;-79
2023/05/04 11:35:29;;;;;;;1.20;0.60;;;;;;;;;;5112367;28;20194;-79
2023/05/04 11:37:56;;;;;;;3.22;0.70;;;;;;;;;;5112252;28;20281;-79
2023/05/04 11:40:24;;;;;;;1.17;0.50;;;;;;;;;;5112098;28;20221;-80
2023/05/04 11:42:53;;;;;;;1.00;0.60;;;;;;;;;;5113478;28;20253;-79
2023/05/04 11:45:22;;;;;;;2.20;0.65;;;;;;;;;;5116123;28;20271;-80
2023/05/04 11:47:49;;;;;;;1.85;0.50;;;;;;;;;;5115711;28;20220;-78
2023/05/04 11:50:17;;;;;;;1.52;0.50;;;;;;;;;;5115874;28;20324;-79
2023/05/04 11:52:46;;;;;;;0.90;0.60;;;;;;;;;;5116144;28;20194;-80
2023/05/04 11:55:14;;;;;;;0.88;0.60;;;;;;;;;;5115755;28;20204;-78
2023/05/04 11:57:41;;;;;;;2.58;0.60;;;;;;;;;;5115749;28;20233;-79
2023/05/04 12:00:09;;;;;;;1.17;0.65;;;;;;;;;;5115787;28;20288;-80
2023/05/04 12:02:36;;;;;;;1.38;0.60;;;;;;;;;;5115572;28;20196;-78
2023/05/04 12:05:03;;;;;;;1.90;0.85;;;;;;;;;;5115781;28;20229;-78
2023/05/04 12:07:31;;;;;;;1.23;0.63;;;;;;;;;;5115699;28;20193;-78
2023/05/04 12:09:59;;;;;;;1.27;0.70;;;;;;;;;;5115779;28;20320;-78
2023/05/04 12:12:35;;;;;;;1.60;0.70;;;;;;;;;;5115774;28;20218;-79
2023/05/04 12:15:02;;;;;;;2.90;1.05;;;;;;;;;;5115525;28;20296;-79
2023/05/04 12:17:40;;;;;;;3.35;1.00;;;;;;;;;;5115114;28;20248;-79
2023/05/04 12:20:07;;;;;;;3.20;1.05;;;;;;;;;;5115504;28;20198;-79
2023/05/04 12:22:35;;;;;;;1.60;0.75;;;;;;;;;;5115760;28;20228;-79
2023/05/04 12:25:03;;;;;;;2.67;0.93;;;;;;;;;;5115543;28;20213;-79
2023/05/04 12:27:30;;;;;;;1.75;0.80;;;;;;;;;;5115209;28;20250;-79
2023/05/04 12:29:58;;;;;;;3.15;0.80;;;;;;;;;;5115124;28;20240;-78
2023/05/04 12:32:25;;;;;;;2.03;0.85;;;;;;;;;;5115250;28;20281;-79
2023/05/04 12:34:52;;;;;;;3.30;0.93;;;;;;;;;;5115125;28;20391;-79
2023/05/04 12:37:19;;;;;;;1.65;0.65;;;;;;;;;;5114819;28;20296;-78
2023/05/04 12:39:46;;;;;;;3.28;0.85;;;;;;;;;;5115390;28;20225;-79
2023/05/04 12:42:15;;;;;;;2.22;1.10;;;;;;;;;;5115226;28;20292;-78
2023/05/04 12:44:42;;;;;;;2.05;0.90;;;;;;;;;;5115166;28;20217;-78
2023/05/04 12:47:09;;;;;;;2.88;0.85;;;;;;;;;;5114367;28;20228;-78
2023/05/04 12:49:36;;;;;;;2.97;1.08;;;;;;;;;;5115163;28;20252;-78
2023/05/04 12:52:04;;;;;;;2.22;0.80;;;;;;;;;;5114861;28;20198;-78
2023/05/04 12:54:31;;;;;;;4.25;0.70;;;;;;;;;;5114143;28;20198;-78
2023/05/04 12:56:58;;;;;;;2.60;0.63;;;;;;;;;;5114823;28;20293;-78
2023/05/04 12:59:27;;;;;;;2.78;0.80;;;;;;;;;;5114844;28;20729;-79
2023/05/04 13:01:55;;;;;;;1.30;0.60;;;;;;;;;;5114546;28;20239;-79
2023/05/04 13:04:22;;;;;;;2.42;0.77;;;;;;;;;;5114919;28;20190;-79
2023/05/04 13:06:50;;;;;;;4.15;1.02;;;;;;;;;;5114593;28;20238;-78
2023/05/04 13:09:19;;;;;;;3.25;0.90;;;;;;;;;;5114827;28;20194;-79
2023/05/04 13:11:46;;;;;;;5.68;0.70;;;;;;;;;;5114497;28;20197;-79
2023/05/04 13:14:14;;;;;;;2.25;0.70;;;;;;;;;;5114047;28;20232;-78
2023/05/04 13:16:42;;;;;;;3.47;0.95;;;;;;;;;;5114232;28;20649;-80
2023/05/04 13:19:10;;;;;;;3.75;1.20;;;;;;;;;;5114362;28;20281;-78
2023/05/04 13:21:37;;;;;;;3.47;0.75;;;;;;;;;;5114759;28;20208;-78
2023/05/04 13:24:04;;;;;;;4.22;1.10;;;;;;;;;;5114823;28;20276;-79
2023/05/04 13:26:32;;;;;;;4.57;1.00;;;;;;;;;;5113938;28;20198;-79
2023/05/04 13:28:59;;;;;;;2.67;0.90;;;;;;;;;;5113592;28;20197;-79
2023/05/04 13:31:26;;;;;;;3.13;1.13;;;;;;;;;;5113934;28;20325;-78
2023/05/04 13:33:55;;;;;;;3.92;0.93;;;;;;;;;;5114233;28;20194;-78
2023/05/04 13:36:22;;;;;;;3.65;1.05;;;;;;;;;;5114250;28;20568;-79
2023/05/04 13:38:50;;;;;;;3.72;1.02;;;;;;;;;;5113972;28;20581;-78
2023/05/04 13:41:17;;;;;;;2.85;0.80;;;;;;;;;;5113772;28;20680;-79
2023/05/04 13:43:44;;;;;;;4.25;1.08;;;;;;;;;;5113339;28;20225;-79
2023/05/04 13:46:11;;;;;;;2.22;0.90;;;;;;;;;;5113830;28;20221;-78
2023/05/04 13:48:38;;;;;;;3.92;1.00;;;;;;;;;;5113468;28;20202;-79
2023/05/04 13:51:07;;;;;;;3.17;0.80;;;;;;;;;;5113939;28;20320;-78
2023/05/04 13:53:34;;;;;;;3.33;0.90;;;;;;;;;;5113851;28;20193;-79
2023/05/04 13:56:02;;;;;;;3.50;0.80;;;;;;;;;;5113669;28;20225;-79
2023/05/04 13:58:29;;;;;;;3.45;0.95;;;;;;;;;;5113117;28;20296;-78
2023/05/04 14:00:57;;;;;;;2.20;0.70;;;;;;;;;;5113660;28;20288;-78
2023/05/04 14:03:25;;;;;;;2.67;0.90;;;;;;;;;;5113321;28;20198;-77
2023/05/04 14:05:52;;;;;;;3.78;0.90;;;;;;;;;;5112514;28;20296;-78
2023/05/04 14:08:21;;;;;;;5.00;1.08;;;;;;;;;;5113382;28;20204;-78
2023/05/04 14:10:48;;;;;;;3.70;0.80;;;;;;;;;;5110741;27;20264;-78
2023/05/04 14:13:15;;;;;;;1.88;0.80;;;;;;;;;;5111176;28;20237;-78
2023/05/04 14:15:42;;;;;;;2.63;0.90;;;;;;;;;;5111183;28;20830;-77
2023/05/04 14:18:10;;;;;;;2.92;0.73;;;;;;;;;;5112647;28;20280;-78
2023/05/04 14:20:37;;;;;;;4.53;0.70;;;;;;;;;;5112839;28;20573;-77
2023/05/04 14:23:04;;;;;;;4.20;0.80;;;;;;;;;;5113051;28;20236;-78
2023/05/04 14:25:33;;;;;;;3.55;1.05;;;;;;;;;;5112635;28;20247;-79
2023/05/04 14:28:00;;;;;;;2.53;0.52;;;;;;;;;;5112829;28;20255;-78
2023/05/04 14:30:27;;;;;;;2.50;0.88;;;;;;;;;;5112263;28;20705;-79
2023/05/04 14:32:55;;;;;;;3.78;0.68;;;;;;;;;;5111204;28;20197;-78
2023/05/04 14:35:22;;;;;;;3.05;0.80;;;;;;;;;;5108961;28;20581;-78
2023/05/04 14:37:50;;;;;;;3.38;0.70;;;;;;;;;;5112740;28;20250;-79
2023/05/04 14:40:17;;;;;;;4.35;0.80;;;;;;;;;;5110158;28;20202;-78
2023/05/04 14:42:46;;;;;;;3.88;0.60;;;;;;;;;;5111658;28;20317;-79
2023/05/04 14:45:13;;;;;;;3.40;0.90;;;;;;;;;;5111850;28;20225;-79
2023/05/04 14:47:41;;;;;;;2.25;0.70;;;;;;;;;;5112631;28;20277;-78